• Join FlightAware (Why Join?)
  • Login
  • US Flag 
09:38AM EDT


 

Airport Tracker/Info


-or-


 

Live Flight TrackerFlight Track Log ✈ N256PH ✈ 18-Jul-2013 ✈ KTYS - KPIB

Flight Track Log - Related Links

Times and Time Zones

All times are in EDT time to prevent confusion due to time zone crossing. See the N256PH flight status page for this flight to view local times or setup timezone preferences in your user account.

Time Position Orientation Groundspeed Altitude Reporting Facility
EDT Latitude Longitude Course Direction KTS MPH feet Rate Location/Type
04:10PM 35.8664 -84.0106 238° Southwest 158 182 4,400  Level Atlanta Center
04:11PM 35.8350 -84.0719 238° Southwest 136 157 6,400 2,160 Climbing Atlanta Center
04:12PM 35.7892 -84.1333 227° Southwest 187 215 8,800 2,280 Climbing Atlanta Center
04:13PM 35.7411 -84.1922 225° Southwest 218 251 11,000 2,340 Climbing Atlanta Center
04:14PM 35.6931 -84.2536 226° Southwest 244 281 13,500 2,280 Climbing Atlanta Center
04:15PM 35.6450 -84.3172 227° Southwest 255 293 15,600 2,100 Climbing Atlanta Center
04:16PM 35.5947 -84.3861 228° Southwest 260 299 17,700 1,920 Climbing Atlanta Center
04:17PM 35.5403 -84.4522 225° Southwest 265 305 19,500 1,740 Climbing Atlanta Center
04:18PM 35.4878 -84.5208 227° Southwest 271 312 21,200 1,620 Climbing Atlanta Center
04:19PM 35.4311 -84.5919 226° Southwest 277 319 22,800 1,380 Climbing Atlanta Center
04:20PM 35.3744 -84.6628 226° Southwest 282 325 24,000 1,200 Climbing Atlanta Center
04:21PM 35.3178 -84.7361 227° Southwest 293 337 25,200 1,200 Climbing Atlanta Center
04:22PM 35.2569 -84.8119 226° Southwest 303 349 26,400 1,140 Climbing Atlanta Center
04:23PM 35.1958 -84.8903 226° Southwest 314 361 27,500 1,020 Climbing Atlanta Center
04:24PM 35.1369 -84.9683 227° Southwest 314 361 28,500 1,020 Climbing Atlanta Center
04:25PM 35.0717 -85.0489 225° Southwest 320 368 29,600 1,200 Climbing Atlanta Center
04:26PM 35.0125 -85.1242 226° Southwest 320 368 30,900 1,080 Climbing Atlanta Center
04:27PM 34.9511 -85.2019 226° Southwest 315 362 31,800 900 Climbing Atlanta Center
04:28PM 34.8900 -85.2822 227° Southwest 320 368 32,700 960 Climbing Atlanta Center
04:29PM 34.8264 -85.3597 225° Southwest 320 368 33,800 1,200 Climbing Atlanta Center
04:30PM 34.7650 -85.4394 227° Southwest 320 368 35,100 1,140 Climbing Atlanta Center
04:31PM 34.7058 -85.5144 226° Southwest 315 362 36,100 960 Climbing Atlanta Center
04:32PM 34.6444 -85.5892 225° Southwest 315 362 37,100 840 Climbing Atlanta Center
04:33PM 34.5914 -85.6561 226° Southwest 315 362 37,800 420 Climbing Atlanta Center
04:34PM 34.5256 -85.7356 225° Southwest 320 368 38,000 60 Climbing Atlanta Center
04:35PM 34.4575 -85.8200 226° Southwest 333 383 38,000  Level Atlanta Center
04:36PM 34.3853 -85.9089 225° Southwest 352 405 38,000  Level Atlanta Center
04:37PM 34.3089 -86.0003 225° Southwest 373 429 38,000  Level Atlanta Center
04:38PM 34.2300 -86.0939 224° Southwest 391 450 38,000  Level Atlanta Center
04:39PM 34.1469 -86.1975 226° Southwest 397 457 38,000  Level Atlanta Center
04:40PM 34.0700 -86.2908 225° Southwest 397 457 38,000  Level Atlanta Center
04:41PM 33.9931 -86.3864 226° Southwest 397 457 38,000  Level Atlanta Center
04:42PM 33.9161 -86.4794 225° Southwest 397 457 38,000  Level Atlanta Center
04:43PM 33.8392 -86.5697 224° Southwest 397 457 38,000  Level Atlanta Center
04:44PM 33.7642 -86.6600 225° Southwest 397 457 38,000  Level Atlanta Center
04:45PM 33.6892 -86.7575 227° Southwest 397 457 38,000  Level Atlanta Center
04:46PM 33.6119 -86.8475 224° Southwest 397 457 38,000  Level Atlanta Center
04:47PM 33.5369 -86.9372 225° Southwest 392 451 38,000  Level Atlanta Center
04:48PM 33.4636 -87.0269 226° Southwest 392 451 38,000  Level Atlanta Center
04:49PM 33.3864 -87.1139 223° Southwest 392 451 38,000 -300 Level Atlanta Center
04:50PM 33.3092 -87.1981 222° Southwest 392 451 37,500 -1,200 Descending Atlanta Center
04:51PM 33.2064 -87.2217 191° South 378 435 35,700 -2,400 Descending Atlanta Center
04:52PM 33.1056 -87.2428 190° South 366 421 32,800 -2,100 Descending Atlanta Center
04:53PM 33.0322 -87.3367 227° Southwest 362 417 31,600 -1,080 Descending Atlanta Center
04:54PM 32.9650 -87.4258 228° Southwest 378 435 30,700 -840 Descending Atlanta Center
04:55PM 32.8869 -87.5317 229° Southwest 402 463 30,000 -360 Descending Atlanta Center
04:56PM 32.8133 -87.6250 227° Southwest 409 471 30,000  Level Atlanta Center
04:57PM 32.7297 -87.7322 227° Southwest 406 467 30,000  Level Memphis Center
04:58PM 32.6689 -87.8228 231° Southwest 401 461 30,000  Level Memphis Center
04:59PM 32.5853 -87.9214 225° Southwest 395 455 30,000  Level Memphis Center
05:00PM 32.5161 -88.0144 229° Southwest 390 449 30,000  Level Memphis Center
05:01PM 32.4489 -88.1022 228° Southwest 390 449 30,000  Level Memphis Center
05:02PM 32.3775 -88.1950 228° Southwest 390 449 30,000 -240 Level Memphis Center
05:03PM 32.3019 -88.2903 227° Southwest 390 449 29,600 -720 Descending Memphis Center
05:04PM 32.2242 -88.3878 227° Southwest 402 463 28,600 -1,020 Descending Memphis Center
05:05PM 32.1483 -88.4878 228° Southwest 402 463 27,600 -960 Descending Memphis Center
05:06PM 32.0747 -88.5922 230° Southwest 407 468 26,700 -900 Descending Memphis Center
05:07PM 32.0011 -88.6942 230° Southwest 413 475 25,800 -1,200 Descending Memphis Center
05:08PM 31.9253 -88.7983 229° Southwest 413 475 24,400 -2,160 Descending Memphis Center
05:08PM 31.8717 -88.8717 229° Southwest 410 472 22,200 -3,180 Descending Houston Center
05:09PM 31.8053 -88.9514 226° Southwest 356 410 19,000 -3,060 Descending Houston Center
05:10PM 31.7394 -89.0192 221° Southwest 322 371 15,900 -3,120 Descending Houston Center
05:12PM 31.6964 -89.0906 235° Southwest 280 322 12,600 -3,180 Descending Houston Center
05:13PM 31.6553 -89.1536 233° Southwest 254 292 9,400 -3,000 Descending Houston Center
05:14PM 31.6022 -89.2142 224° Southwest 226 260 6,400 -2,940 Descending Houston Center
05:16PM 31.4667 -89.3333 240° Southwest  Level FlightAware Approximate
05:23PM 31.4671 -89.3371 240° Southwest  Level Estimated
05:24PM 31.4667 -89.3333 240° Southwest  Level FlightAware Approximate
05:25PM 31.4671 -89.3371 240° Southwest  Level Estimated